Airport View

Enter AWOS ICAO identifier for current METAR.

ex. KFNL

KALM 261215Z AUTO 00000KT 10SM CLR 20/04 A3007 RMK AO2

26 Jun 2019 12:23

Frequency: 127.825

Phone: 575-439-4112

Other Area AWOS: KHMN - KSRR - KLRU - KBIF

TAF KHMN 260902Z 2609/2715 13010G15KT 9999 SKC QNH3003INS BECMG 2614/2615 18012KT 9999 FEW140 QNH3009INS BECMG 2617/2618 19012G20KT 9999 FEW140 QNH3000INS TEMPO 2620/2702 18015G25KT VCTS SCT100CB 520009 BECMG 2701/2702 20012G18KT 9999 SCT130 QNH3002INS BECMG 2708/2709 VRB06KT 9999 SCT120 QNH3001INS TX36/2620Z TN19/2612Z